sensor_id;sensor_type;location;lat;lon;timestamp;temperature;humidity
8248;DHT22;4164;49.844;8.830;2023-03-14T00:00:57;10.70;99.90
8248;DHT22;4164;49.844;8.830;2023-03-14T00:03:22;10.70;99.90
8248;DHT22;4164;49.844;8.830;2023-03-14T00:05:48;10.70;99.90
8248;DHT22;4164;49.844;8.830;2023-03-14T00:08:13;10.70;99.90
8248;DHT22;4164;49.844;8.830;2023-03-14T00:10:39;10.60;99.90
8248;DHT22;4164;49.844;8.830;2023-03-14T00:13:05;10.70;99.90
8248;DHT22;4164;49.844;8.830;2023-03-14T00:15:35;10.60;99.90
8248;DHT22;4164;49.844;8.830;2023-03-14T00:18:00;10.60;99.90
8248;DHT22;4164;49.844;8.830;2023-03-14T00:20:26;10.60;99.90
8248;DHT22;4164;49.844;8.830;2023-03-14T00:22:52;10.60;99.90
8248;DHT22;4164;49.844;8.830;2023-03-14T00:25:17;10.60;99.90
8248;DHT22;4164;49.844;8.830;2023-03-14T00:27:43;10.60;99.90
8248;DHT22;4164;49.844;8.830;2023-03-14T00:30:10;10.60;99.90
8248;DHT22;4164;49.844;8.830;2023-03-14T00:32:35;10.60;99.90
8248;DHT22;4164;49.844;8.830;2023-03-14T00:35:01;10.50;99.90
8248;DHT22;4164;49.844;8.830;2023-03-14T00:37:28;10.50;99.90
8248;DHT22;4164;49.844;8.830;2023-03-14T00:39:54;10.60;99.90
8248;DHT22;4164;49.844;8.830;2023-03-14T00:42:19;10.60;99.90
8248;DHT22;4164;49.844;8.830;2023-03-14T00:44:45;10.50;99.90
8248;DHT22;4164;49.844;8.830;2023-03-14T00:47:10;10.50;99.90
8248;DHT22;4164;49.844;8.830;2023-03-14T00:49:36;10.60;99.90
8248;DHT22;4164;49.844;8.830;2023-03-14T00:52:01;10.50;99.90
8248;DHT22;4164;49.844;8.830;2023-03-14T00:54:27;10.60;99.90
8248;DHT22;4164;49.844;8.830;2023-03-14T00:56:53;10.60;99.90
8248;DHT22;4164;49.844;8.830;2023-03-14T00:59:18;10.60;99.90
8248;DHT22;4164;49.844;8.830;2023-03-14T01:01:44;10.60;99.90
8248;DHT22;4164;49.844;8.830;2023-03-14T01:04:10;10.60;99.90
8248;DHT22;4164;49.844;8.830;2023-03-14T01:06:35;10.60;99.90
8248;DHT22;4164;49.844;8.830;2023-03-14T01:09:01;10.60;99.90
8248;DHT22;4164;49.844;8.830;2023-03-14T01:11:30;10.60;99.90
8248;DHT22;4164;49.844;8.830;2023-03-14T01:13:56;10.60;99.90
8248;DHT22;4164;49.844;8.830;2023-03-14T01:16:23;10.60;99.90
8248;DHT22;4164;49.844;8.830;2023-03-14T01:18:49;10.60;99.90
8248;DHT22;4164;49.844;8.830;2023-03-14T01:21:20;10.60;99.90
8248;DHT22;4164;49.844;8.830;2023-03-14T01:23:47;10.60;99.90
8248;DHT22;4164;49.844;8.830;2023-03-14T01:26:16;10.50;99.90
8248;DHT22;4164;49.844;8.830;2023-03-14T01:28:42;10.60;99.90
8248;DHT22;4164;49.844;8.830;2023-03-14T01:31:09;10.60;99.90
8248;DHT22;4164;49.844;8.830;2023-03-14T01:33:36;10.60;99.90
8248;DHT22;4164;49.844;8.830;2023-03-14T01:36:02;10.70;99.90
8248;DHT22;4164;49.844;8.830;2023-03-14T01:38:29;10.70;99.90
8248;DHT22;4164;49.844;8.830;2023-03-14T01:40:55;10.60;99.90
8248;DHT22;4164;49.844;8.830;2023-03-14T01:43:21;10.60;99.90
8248;DHT22;4164;49.844;8.830;2023-03-14T01:51:27;10.60;99.90
8248;DHT22;4164;49.844;8.830;2023-03-14T01:54:30;10.70;99.90
8248;DHT22;4164;49.844;8.830;2023-03-14T01:56:57;10.70;99.90
8248;DHT22;4164;49.844;8.830;2023-03-14T01:59:24;10.70;99.90
8248;DHT22;4164;49.844;8.830;2023-03-14T02:01:50;10.70;99.90
8248;DHT22;4164;49.844;8.830;2023-03-14T02:04:17;10.70;99.90
8248;DHT22;4164;49.844;8.830;2023-03-14T02:07:10;10.70;99.90
8248;DHT22;4164;49.844;8.830;2023-03-14T02:09:38;10.60;99.90
8248;DHT22;4164;49.844;8.830;2023-03-14T02:12:04;10.60;99.90
8248;DHT22;4164;49.844;8.830;2023-03-14T02:14:34;10.60;99.90
8248;DHT22;4164;49.844;8.830;2023-03-14T02:17:01;10.60;99.90
8248;DHT22;4164;49.844;8.830;2023-03-14T02:22:12;10.60;99.90
8248;DHT22;4164;49.844;8.830;2023-03-14T02:24:46;10.60;99.90
8248;DHT22;4164;49.844;8.830;2023-03-14T02:27:16;10.60;99.90
8248;DHT22;4164;49.844;8.830;2023-03-14T02:30:04;10.60;99.90
8248;DHT22;4164;49.844;8.830;2023-03-14T02:32:32;10.60;99.90
8248;DHT22;4164;49.844;8.830;2023-03-14T02:35:01;10.70;99.90
8248;DHT22;4164;49.844;8.830;2023-03-14T02:37:44;10.70;99.90
8248;DHT22;4164;49.844;8.830;2023-03-14T02:40:11;10.70;99.90
8248;DHT22;4164;49.844;8.830;2023-03-14T02:42:37;10.70;99.90
8248;DHT22;4164;49.844;8.830;2023-03-14T02:47:37;10.70;99.90
8248;DHT22;4164;49.844;8.830;2023-03-14T02:50:10;10.70;99.90
8248;DHT22;4164;49.844;8.830;2023-03-14T02:52:37;10.60;99.90
8248;DHT22;4164;49.844;8.830;2023-03-14T02:55:03;10.60;99.90
8248;DHT22;4164;49.844;8.830;2023-03-14T02:57:29;10.70;99.90
8248;DHT22;4164;49.844;8.830;2023-03-14T02:59:58;10.70;99.90
8248;DHT22;4164;49.844;8.830;2023-03-14T03:02:24;10.70;99.90
8248;DHT22;4164;49.844;8.830;2023-03-14T03:04:49;10.70;99.90
8248;DHT22;4164;49.844;8.830;2023-03-14T03:07:15;10.70;99.90
8248;DHT22;4164;49.844;8.830;2023-03-14T03:09:40;10.70;99.90
8248;DHT22;4164;49.844;8.830;2023-03-14T03:12:06;10.70;99.90
8248;DHT22;4164;49.844;8.830;2023-03-14T03:14:32;10.70;99.90
8248;DHT22;4164;49.844;8.830;2023-03-14T03:16:57;10.60;99.90
8248;DHT22;4164;49.844;8.830;2023-03-14T03:19:23;10.70;99.90
8248;DHT22;4164;49.844;8.830;2023-03-14T03:21:48;10.70;99.90
8248;DHT22;4164;49.844;8.830;2023-03-14T03:24:14;10.60;99.90
8248;DHT22;4164;49.844;8.830;2023-03-14T03:26:39;10.60;99.90
8248;DHT22;4164;49.844;8.830;2023-03-14T03:29:05;10.60;99.90
8248;DHT22;4164;49.844;8.830;2023-03-14T03:31:30;10.60;99.90
8248;DHT22;4164;49.844;8.830;2023-03-14T03:33:56;10.50;99.90
8248;DHT22;4164;49.844;8.830;2023-03-14T03:36:24;10.40;99.90
8248;DHT22;4164;49.844;8.830;2023-03-14T03:38:49;10.40;99.90
8248;DHT22;4164;49.844;8.830;2023-03-14T03:41:18;10.40;99.90
8248;DHT22;4164;49.844;8.830;2023-03-14T03:43:43;10.40;99.90
8248;DHT22;4164;49.844;8.830;2023-03-14T03:46:09;10.30;99.90
8248;DHT22;4164;49.844;8.830;2023-03-14T03:48:35;10.30;99.90
8248;DHT22;4164;49.844;8.830;2023-03-14T03:51:00;10.30;99.90
8248;DHT22;4164;49.844;8.830;2023-03-14T03:53:26;10.30;99.90
8248;DHT22;4164;49.844;8.830;2023-03-14T03:55:52;10.30;99.90
8248;DHT22;4164;49.844;8.830;2023-03-14T03:58:17;10.30;99.90
8248;DHT22;4164;49.844;8.830;2023-03-14T04:00:43;10.30;99.90
8248;DHT22;4164;49.844;8.830;2023-03-14T04:03:09;10.30;99.90
8248;DHT22;4164;49.844;8.830;2023-03-14T04:05:34;10.20;99.90
8248;DHT22;4164;49.844;8.830;2023-03-14T04:08:00;10.30;99.90
8248;DHT22;4164;49.844;8.830;2023-03-14T04:10:26;10.20;99.90
8248;DHT22;4164;49.844;8.830;2023-03-14T04:12:51;10.20;99.90
8248;DHT22;4164;49.844;8.830;2023-03-14T04:15:17;10.20;99.90
8248;DHT22;4164;49.844;8.830;2023-03-14T04:17:43;10.20;99.90
8248;DHT22;4164;49.844;8.830;2023-03-14T04:20:09;10.20;99.90
8248;DHT22;4164;49.844;8.830;2023-03-14T04:22:36;10.20;99.90
8248;DHT22;4164;49.844;8.830;2023-03-14T04:25:02;10.20;99.90
8248;DHT22;4164;49.844;8.830;2023-03-14T04:27:28;10.20;99.90
8248;DHT22;4164;49.844;8.830;2023-03-14T04:29:54;10.20;99.90
8248;DHT22;4164;49.844;8.830;2023-03-14T04:32:20;10.20;99.90
8248;DHT22;4164;49.844;8.830;2023-03-14T04:34:45;10.20;99.90
8248;DHT22;4164;49.844;8.830;2023-03-14T04:37:11;10.20;99.90
8248;DHT22;4164;49.844;8.830;2023-03-14T04:39:36;10.20;99.90
8248;DHT22;4164;49.844;8.830;2023-03-14T04:42:02;10.30;99.90
8248;DHT22;4164;49.844;8.830;2023-03-14T04:44:28;10.30;99.90
8248;DHT22;4164;49.844;8.830;2023-03-14T04:46:53;10.30;99.90
8248;DHT22;4164;49.844;8.830;2023-03-14T04:49:19;10.40;99.90
8248;DHT22;4164;49.844;8.830;2023-03-14T04:51:44;10.40;99.90
8248;DHT22;4164;49.844;8.830;2023-03-14T04:54:10;10.30;99.90
8248;DHT22;4164;49.844;8.830;2023-03-14T04:56:36;10.40;99.90
8248;DHT22;4164;49.844;8.830;2023-03-14T04:59:02;10.40;99.90
8248;DHT22;4164;49.844;8.830;2023-03-14T05:01:28;10.40;99.90
8248;DHT22;4164;49.844;8.830;2023-03-14T05:03:54;10.50;99.90
8248;DHT22;4164;49.844;8.830;2023-03-14T05:06:19;10.50;99.90
8248;DHT22;4164;49.844;8.830;2023-03-14T05:08:45;10.50;99.90
8248;DHT22;4164;49.844;8.830;2023-03-14T05:11:11;10.50;99.90
8248;DHT22;4164;49.844;8.830;2023-03-14T05:13:38;10.60;99.90
8248;DHT22;4164;49.844;8.830;2023-03-14T05:16:08;10.60;99.90
8248;DHT22;4164;49.844;8.830;2023-03-14T05:18:35;10.60;99.90
8248;DHT22;4164;49.844;8.830;2023-03-14T05:21:01;10.60;99.90
8248;DHT22;4164;49.844;8.830;2023-03-14T05:23:26;10.60;99.90
8248;DHT22;4164;49.844;8.830;2023-03-14T05:25:52;10.60;99.90
8248;DHT22;4164;49.844;8.830;2023-03-14T05:28:18;10.60;99.90
8248;DHT22;4164;49.844;8.830;2023-03-14T05:30:43;10.60;99.90
8248;DHT22;4164;49.844;8.830;2023-03-14T05:33:09;10.60;99.90
8248;DHT22;4164;49.844;8.830;2023-03-14T05:35:34;10.60;99.90
8248;DHT22;4164;49.844;8.830;2023-03-14T05:38:00;10.60;99.90
8248;DHT22;4164;49.844;8.830;2023-03-14T05:40:25;10.60;99.90
8248;DHT22;4164;49.844;8.830;2023-03-14T05:42:51;10.60;99.90
8248;DHT22;4164;49.844;8.830;2023-03-14T05:45:17;10.60;99.90
8248;DHT22;4164;49.844;8.830;2023-03-14T05:47:43;10.60;99.90
8248;DHT22;4164;49.844;8.830;2023-03-14T05:50:09;10.60;99.90
8248;DHT22;4164;49.844;8.830;2023-03-14T05:52:35;10.60;99.90
8248;DHT22;4164;49.844;8.830;2023-03-14T05:55:00;10.60;99.90
8248;DHT22;4164;49.844;8.830;2023-03-14T05:57:26;10.60;99.90
8248;DHT22;4164;49.844;8.830;2023-03-14T05:59:52;10.60;99.90
8248;DHT22;4164;49.844;8.830;2023-03-14T06:02:17;10.60;99.90
8248;DHT22;4164;49.844;8.830;2023-03-14T06:04:42;10.60;99.90
8248;DHT22;4164;49.844;8.830;2023-03-14T06:07:08;10.60;99.90
8248;DHT22;4164;49.844;8.830;2023-03-14T06:09:34;10.60;99.90
8248;DHT22;4164;49.844;8.830;2023-03-14T06:11:59;10.60;99.90
8248;DHT22;4164;49.844;8.830;2023-03-14T06:14:25;10.60;99.90
8248;DHT22;4164;49.844;8.830;2023-03-14T06:16:50;10.60;99.90
8248;DHT22;4164;49.844;8.830;2023-03-14T06:19:16;10.60;99.90
8248;DHT22;4164;49.844;8.830;2023-03-14T06:21:42;10.50;99.90
8248;DHT22;4164;49.844;8.830;2023-03-14T06:24:07;10.60;99.90
8248;DHT22;4164;49.844;8.830;2023-03-14T06:26:33;10.60;99.90
8248;DHT22;4164;49.844;8.830;2023-03-14T06:28:58;10.60;99.90
8248;DHT22;4164;49.844;8.830;2023-03-14T06:31:29;10.50;99.90
8248;DHT22;4164;49.844;8.830;2023-03-14T06:33:55;10.60;99.90
8248;DHT22;4164;49.844;8.830;2023-03-14T06:36:20;10.60;99.90
8248;DHT22;4164;49.844;8.830;2023-03-14T06:38:46;10.60;99.90
8248;DHT22;4164;49.844;8.830;2023-03-14T06:41:11;10.50;99.90
8248;DHT22;4164;49.844;8.830;2023-03-14T06:43:37;10.50;99.90
8248;DHT22;4164;49.844;8.830;2023-03-14T06:46:02;10.40;99.90
8248;DHT22;4164;49.844;8.830;2023-03-14T06:48:28;10.20;99.90
8248;DHT22;4164;49.844;8.830;2023-03-14T06:50:54;10.00;99.90
8248;DHT22;4164;49.844;8.830;2023-03-14T06:53:19;9.90;99.90
8248;DHT22;4164;49.844;8.830;2023-03-14T06:55:45;9.80;99.90
8248;DHT22;4164;49.844;8.830;2023-03-14T06:58:11;9.90;99.90
8248;DHT22;4164;49.844;8.830;2023-03-14T07:00:37;9.90;99.90
8248;DHT22;4164;49.844;8.830;2023-03-14T07:03:02;9.90;99.90
8248;DHT22;4164;49.844;8.830;2023-03-14T07:05:28;10.00;99.90
8248;DHT22;4164;49.844;8.830;2023-03-14T07:07:54;10.00;99.90
8248;DHT22;4164;49.844;8.830;2023-03-14T07:10:20;10.10;99.90
8248;DHT22;4164;49.844;8.830;2023-03-14T07:12:45;10.10;99.90
8248;DHT22;4164;49.844;8.830;2023-03-14T07:15:11;10.20;99.90
8248;DHT22;4164;49.844;8.830;2023-03-14T07:17:36;10.20;99.90
8248;DHT22;4164;49.844;8.830;2023-03-14T07:20:02;10.20;99.90
8248;DHT22;4164;49.844;8.830;2023-03-14T07:22:30;10.20;99.90
8248;DHT22;4164;49.844;8.830;2023-03-14T07:24:55;10.30;99.90
8248;DHT22;4164;49.844;8.830;2023-03-14T07:27:21;10.30;99.90
8248;DHT22;4164;49.844;8.830;2023-03-14T07:29:46;10.30;99.90
8248;DHT22;4164;49.844;8.830;2023-03-14T07:32:12;10.40;99.90
8248;DHT22;4164;49.844;8.830;2023-03-14T07:34:43;10.40;99.90
8248;DHT22;4164;49.844;8.830;2023-03-14T07:37:09;10.40;99.90
8248;DHT22;4164;49.844;8.830;2023-03-14T07:39:35;10.50;99.90
8248;DHT22;4164;49.844;8.830;2023-03-14T07:42:00;10.40;99.90
8248;DHT22;4164;49.844;8.830;2023-03-14T07:44:26;10.50;99.90
8248;DHT22;4164;49.844;8.830;2023-03-14T07:46:52;10.70;99.90
8248;DHT22;4164;49.844;8.830;2023-03-14T07:49:18;10.70;99.90
8248;DHT22;4164;49.844;8.830;2023-03-14T07:51:43;10.80;99.90
8248;DHT22;4164;49.844;8.830;2023-03-14T07:54:09;10.80;99.90
8248;DHT22;4164;49.844;8.830;2023-03-14T07:56:35;10.90;99.90
8248;DHT22;4164;49.844;8.830;2023-03-14T07:59:01;10.80;99.90
8248;DHT22;4164;49.844;8.830;2023-03-14T08:01:26;10.80;99.90
8248;DHT22;4164;49.844;8.830;2023-03-14T08:03:52;10.90;99.90
8248;DHT22;4164;49.844;8.830;2023-03-14T08:06:17;11.00;99.90
8248;DHT22;4164;49.844;8.830;2023-03-14T08:08:43;11.00;99.90
8248;DHT22;4164;49.844;8.830;2023-03-14T08:11:08;10.90;99.90
8248;DHT22;4164;49.844;8.830;2023-03-14T08:13:35;11.00;99.90
8248;DHT22;4164;49.844;8.830;2023-03-14T08:16:01;11.00;99.90
8248;DHT22;4164;49.844;8.830;2023-03-14T08:18:29;11.00;99.90
8248;DHT22;4164;49.844;8.830;2023-03-14T08:20:55;11.00;99.90
8248;DHT22;4164;49.844;8.830;2023-03-14T08:23:21;11.00;99.90
8248;DHT22;4164;49.844;8.830;2023-03-14T08:25:49;11.00;99.90
8248;DHT22;4164;49.844;8.830;2023-03-14T08:28:15;11.10;99.90
8248;DHT22;4164;49.844;8.830;2023-03-14T08:30:41;11.10;99.90
8248;DHT22;4164;49.844;8.830;2023-03-14T08:33:06;11.10;99.90
8248;DHT22;4164;49.844;8.830;2023-03-14T08:35:32;11.20;99.90
8248;DHT22;4164;49.844;8.830;2023-03-14T08:37:58;11.20;99.90
8248;DHT22;4164;49.844;8.830;2023-03-14T08:40:23;11.30;99.90
8248;DHT22;4164;49.844;8.830;2023-03-14T08:42:49;11.30;99.90
8248;DHT22;4164;49.844;8.830;2023-03-14T08:45:15;11.40;99.90
8248;DHT22;4164;49.844;8.830;2023-03-14T08:47:44;11.30;99.90
8248;DHT22;4164;49.844;8.830;2023-03-14T08:50:11;11.30;99.90
8248;DHT22;4164;49.844;8.830;2023-03-14T08:52:37;11.30;99.90
8248;DHT22;4164;49.844;8.830;2023-03-14T08:55:07;11.30;99.90
8248;DHT22;4164;49.844;8.830;2023-03-14T08:57:33;11.40;99.90
8248;DHT22;4164;49.844;8.830;2023-03-14T08:59:59;11.30;99.90
8248;DHT22;4164;49.844;8.830;2023-03-14T09:02:25;11.50;99.90
8248;DHT22;4164;49.844;8.830;2023-03-14T09:04:51;11.50;99.90
8248;DHT22;4164;49.844;8.830;2023-03-14T09:07:17;11.50;99.90
8248;DHT22;4164;49.844;8.830;2023-03-14T09:09:43;11.40;99.90
8248;DHT22;4164;49.844;8.830;2023-03-14T09:12:09;11.50;99.90
8248;DHT22;4164;49.844;8.830;2023-03-14T09:14:34;11.40;99.90
8248;DHT22;4164;49.844;8.830;2023-03-14T09:17:00;11.50;99.90
8248;DHT22;4164;49.844;8.830;2023-03-14T09:19:25;11.60;99.90
8248;DHT22;4164;49.844;8.830;2023-03-14T09:21:51;11.70;99.90
8248;DHT22;4164;49.844;8.830;2023-03-14T09:24:17;11.70;99.90
8248;DHT22;4164;49.844;8.830;2023-03-14T09:26:42;11.60;99.90
8248;DHT22;4164;49.844;8.830;2023-03-14T09:29:08;11.50;99.90
8248;DHT22;4164;49.844;8.830;2023-03-14T09:31:34;11.60;99.90
8248;DHT22;4164;49.844;8.830;2023-03-14T09:34:00;11.70;99.90
8248;DHT22;4164;49.844;8.830;2023-03-14T09:36:26;11.60;99.90
8248;DHT22;4164;49.844;8.830;2023-03-14T09:38:51;11.70;99.90
8248;DHT22;4164;49.844;8.830;2023-03-14T09:41:28;11.80;99.90
8248;DHT22;4164;49.844;8.830;2023-03-14T09:46:36;11.80;99.90
8248;DHT22;4164;49.844;8.830;2023-03-14T09:49:03;11.80;99.90
8248;DHT22;4164;49.844;8.830;2023-03-14T09:51:34;11.70;99.90
8248;DHT22;4164;49.844;8.830;2023-03-14T09:54:01;11.80;99.90
8248;DHT22;4164;49.844;8.830;2023-03-14T09:56:29;11.80;99.90
8248;DHT22;4164;49.844;8.830;2023-03-14T09:58:59;11.70;99.90
8248;DHT22;4164;49.844;8.830;2023-03-14T10:01:28;11.50;99.90
8248;DHT22;4164;49.844;8.830;2023-03-14T10:03:55;11.40;99.90
8248;DHT22;4164;49.844;8.830;2023-03-14T10:06:26;11.40;99.90
8248;DHT22;4164;49.844;8.830;2023-03-14T10:08:52;11.30;99.90
8248;DHT22;4164;49.844;8.830;2023-03-14T10:11:19;11.30;99.90
8248;DHT22;4164;49.844;8.830;2023-03-14T10:14:03;11.10;99.90
8248;DHT22;4164;49.844;8.830;2023-03-14T10:16:41;11.00;99.90
8248;DHT22;4164;49.844;8.830;2023-03-14T10:19:11;10.70;99.90
8248;DHT22;4164;49.844;8.830;2023-03-14T10:21:44;10.70;99.90
8248;DHT22;4164;49.844;8.830;2023-03-14T10:24:21;10.60;99.90
8248;DHT22;4164;49.844;8.830;2023-03-14T10:26:48;10.50;99.90
8248;DHT22;4164;49.844;8.830;2023-03-14T10:29:15;10.50;99.90
8248;DHT22;4164;49.844;8.830;2023-03-14T10:32:03;10.50;99.90
8248;DHT22;4164;49.844;8.830;2023-03-14T10:34:37;10.50;99.90
8248;DHT22;4164;49.844;8.830;2023-03-14T10:39:46;10.60;99.90
8248;DHT22;4164;49.844;8.830;2023-03-14T10:42:25;10.60;99.90
8248;DHT22;4164;49.844;8.830;2023-03-14T10:44:57;10.70;99.90
8248;DHT22;4164;49.844;8.830;2023-03-14T10:47:26;10.90;99.90
8248;DHT22;4164;49.844;8.830;2023-03-14T10:49:52;11.00;99.90
8248;DHT22;4164;49.844;8.830;2023-03-14T10:52:26;11.00;99.90
8248;DHT22;4164;49.844;8.830;2023-03-14T10:54:58;10.90;99.90
8248;DHT22;4164;49.844;8.830;2023-03-14T10:57:24;10.80;99.90
8248;DHT22;4164;49.844;8.830;2023-03-14T10:59:51;10.70;99.90
8248;DHT22;4164;49.844;8.830;2023-03-14T11:04:59;10.40;99.90
8248;DHT22;4164;49.844;8.830;2023-03-14T11:07:43;10.30;99.90
8248;DHT22;4164;49.844;8.830;2023-03-14T11:10:17;10.20;99.90
8248;DHT22;4164;49.844;8.830;2023-03-14T11:12:49;10.20;99.90
8248;DHT22;4164;49.844;8.830;2023-03-14T11:15:30;10.30;99.90
8248;DHT22;4164;49.844;8.830;2023-03-14T11:23:24;10.40;99.90
8248;DHT22;4164;49.844;8.830;2023-03-14T11:29:18;10.20;99.90
8248;DHT22;4164;49.844;8.830;2023-03-14T11:31:45;10.20;99.90
8248;DHT22;4164;49.844;8.830;2023-03-14T11:37:05;10.40;99.90
8248;DHT22;4164;49.844;8.830;2023-03-14T11:40:00;10.30;99.90
8248;DHT22;4164;49.844;8.830;2023-03-14T11:42:32;10.30;99.90
8248;DHT22;4164;49.844;8.830;2023-03-14T11:44:58;10.30;99.90
8248;DHT22;4164;49.844;8.830;2023-03-14T11:47:46;10.30;99.90
8248;DHT22;4164;49.844;8.830;2023-03-14T11:50:23;10.30;99.90
8248;DHT22;4164;49.844;8.830;2023-03-14T11:53:05;10.20;99.90
8248;DHT22;4164;49.844;8.830;2023-03-14T11:55:39;10.30;99.90
8248;DHT22;4164;49.844;8.830;2023-03-14T11:58:19;10.30;99.90
8248;DHT22;4164;49.844;8.830;2023-03-14T12:00:47;10.40;99.90
8248;DHT22;4164;49.844;8.830;2023-03-14T12:03:38;10.60;99.90
8248;DHT22;4164;49.844;8.830;2023-03-14T12:13:54;10.90;99.90
8248;DHT22;4164;49.844;8.830;2023-03-14T12:16:33;11.00;99.90
8248;DHT22;4164;49.844;8.830;2023-03-14T12:21:52;10.90;99.90
8248;DHT22;4164;49.844;8.830;2023-03-14T12:24:22;10.50;99.90
8248;DHT22;4164;49.844;8.830;2023-03-14T12:26:54;10.10;99.90
8248;DHT22;4164;49.844;8.830;2023-03-14T12:29:23;10.00;99.90
8248;DHT22;4164;49.844;8.830;2023-03-14T12:32:07;10.00;99.90
8248;DHT22;4164;49.844;8.830;2023-03-14T12:34:42;9.90;99.90
8248;DHT22;4164;49.844;8.830;2023-03-14T12:37:34;9.80;99.90
8248;DHT22;4164;49.844;8.830;2023-03-14T12:40:21;9.70;99.90
8248;DHT22;4164;49.844;8.830;2023-03-14T12:42:59;9.70;99.90
8248;DHT22;4164;49.844;8.830;2023-03-14T12:48:03;9.80;99.90
8248;DHT22;4164;49.844;8.830;2023-03-14T12:50:36;9.90;99.90
8248;DHT22;4164;49.844;8.830;2023-03-14T12:58:44;9.90;99.90
8248;DHT22;4164;49.844;8.830;2023-03-14T13:01:18;9.90;99.90
8248;DHT22;4164;49.844;8.830;2023-03-14T13:06:13;10.20;99.90
8248;DHT22;4164;49.844;8.830;2023-03-14T13:08:58;10.20;99.90
8248;DHT22;4164;49.844;8.830;2023-03-14T13:11:44;10.20;99.90
8248;DHT22;4164;49.844;8.830;2023-03-14T13:14:10;10.10;99.90
8248;DHT22;4164;49.844;8.830;2023-03-14T13:16:36;10.00;99.90
8248;DHT22;4164;49.844;8.830;2023-03-14T13:19:14;9.90;99.90
8248;DHT22;4164;49.844;8.830;2023-03-14T13:21:41;9.80;99.90
8248;DHT22;4164;49.844;8.830;2023-03-14T13:24:23;9.50;99.90
8248;DHT22;4164;49.844;8.830;2023-03-14T13:26:49;9.30;99.90
8248;DHT22;4164;49.844;8.830;2023-03-14T13:29:28;9.10;99.90
8248;DHT22;4164;49.844;8.830;2023-03-14T13:31:59;8.70;99.90
8248;DHT22;4164;49.844;8.830;2023-03-14T13:34:26;8.70;99.90
8248;DHT22;4164;49.844;8.830;2023-03-14T13:36:53;8.40;99.90
8248;DHT22;4164;49.844;8.830;2023-03-14T13:39:21;8.20;99.90
8248;DHT22;4164;49.844;8.830;2023-03-14T13:41:51;8.20;99.90
8248;DHT22;4164;49.844;8.830;2023-03-14T13:44:26;8.30;99.90
8248;DHT22;4164;49.844;8.830;2023-03-14T13:47:01;8.20;99.90
8248;DHT22;4164;49.844;8.830;2023-03-14T13:49:29;8.10;99.90
8248;DHT22;4164;49.844;8.830;2023-03-14T13:51:56;8.10;99.90
8248;DHT22;4164;49.844;8.830;2023-03-14T13:54:22;8.20;99.90
8248;DHT22;4164;49.844;8.830;2023-03-14T13:57:00;8.20;99.90
8248;DHT22;4164;49.844;8.830;2023-03-14T13:59:33;8.20;99.90
8248;DHT22;4164;49.844;8.830;2023-03-14T14:02:03;8.20;99.90
8248;DHT22;4164;49.844;8.830;2023-03-14T14:04:32;8.20;99.90
8248;DHT22;4164;49.844;8.830;2023-03-14T14:07:00;8.20;99.90
8248;DHT22;4164;49.844;8.830;2023-03-14T14:09:38;8.20;99.90
8248;DHT22;4164;49.844;8.830;2023-03-14T14:12:05;8.20;99.90
8248;DHT22;4164;49.844;8.830;2023-03-14T14:14:41;8.30;99.90
8248;DHT22;4164;49.844;8.830;2023-03-14T14:17:11;8.40;99.90
8248;DHT22;4164;49.844;8.830;2023-03-14T14:19:38;8.40;99.90
8248;DHT22;4164;49.844;8.830;2023-03-14T14:22:05;8.40;99.90
8248;DHT22;4164;49.844;8.830;2023-03-14T14:24:32;8.40;99.90
8248;DHT22;4164;49.844;8.830;2023-03-14T14:29:37;8.60;99.90
8248;DHT22;4164;49.844;8.830;2023-03-14T14:32:14;8.70;99.90
8248;DHT22;4164;49.844;8.830;2023-03-14T14:34:56;8.90;99.90
8248;DHT22;4164;49.844;8.830;2023-03-14T14:37:23;9.00;99.90
8248;DHT22;4164;49.844;8.830;2023-03-14T14:39:51;9.10;99.90
8248;DHT22;4164;49.844;8.830;2023-03-14T14:42:19;9.10;99.90
8248;DHT22;4164;49.844;8.830;2023-03-14T14:44:48;9.00;99.90
8248;DHT22;4164;49.844;8.830;2023-03-14T14:47:19;9.00;99.90
8248;DHT22;4164;49.844;8.830;2023-03-14T14:49:47;8.90;99.90
8248;DHT22;4164;49.844;8.830;2023-03-14T14:52:18;9.00;99.90
8248;DHT22;4164;49.844;8.830;2023-03-14T14:54:58;9.00;99.90
8248;DHT22;4164;49.844;8.830;2023-03-14T14:57:38;9.00;99.90
8248;DHT22;4164;49.844;8.830;2023-03-14T15:00:17;9.00;99.90
8248;DHT22;4164;49.844;8.830;2023-03-14T15:02:47;8.80;99.90
8248;DHT22;4164;49.844;8.830;2023-03-14T15:05:15;8.90;99.90
8248;DHT22;4164;49.844;8.830;2023-03-14T15:07:41;8.90;99.90
8248;DHT22;4164;49.844;8.830;2023-03-14T15:10:10;8.80;99.90
8248;DHT22;4164;49.844;8.830;2023-03-14T15:12:36;8.80;99.90
8248;DHT22;4164;49.844;8.830;2023-03-14T15:15:02;8.80;99.90
8248;DHT22;4164;49.844;8.830;2023-03-14T15:17:27;8.70;99.90
8248;DHT22;4164;49.844;8.830;2023-03-14T15:19:53;8.70;99.90
8248;DHT22;4164;49.844;8.830;2023-03-14T15:22:20;8.70;99.90
8248;DHT22;4164;49.844;8.830;2023-03-14T15:24:46;8.60;99.90
8248;DHT22;4164;49.844;8.830;2023-03-14T15:27:13;8.60;99.90
8248;DHT22;4164;49.844;8.830;2023-03-14T15:29:40;8.50;99.90
8248;DHT22;4164;49.844;8.830;2023-03-14T15:32:11;8.50;99.90
8248;DHT22;4164;49.844;8.830;2023-03-14T15:34:36;8.50;99.90
8248;DHT22;4164;49.844;8.830;2023-03-14T15:37:02;8.50;99.90
8248;DHT22;4164;49.844;8.830;2023-03-14T15:39:33;8.50;99.90
8248;DHT22;4164;49.844;8.830;2023-03-14T15:41:59;8.50;99.90
8248;DHT22;4164;49.844;8.830;2023-03-14T15:44:25;8.50;99.90
8248;DHT22;4164;49.844;8.830;2023-03-14T15:46:50;8.50;99.90
8248;DHT22;4164;49.844;8.830;2023-03-14T15:49:16;8.30;99.90
8248;DHT22;4164;49.844;8.830;2023-03-14T15:51:41;8.00;99.90
8248;DHT22;4164;49.844;8.830;2023-03-14T15:54:07;7.70;99.90
8248;DHT22;4164;49.844;8.830;2023-03-14T15:56:32;7.50;99.90
8248;DHT22;4164;49.844;8.830;2023-03-14T15:58:58;7.30;99.90
8248;DHT22;4164;49.844;8.830;2023-03-14T16:01:23;7.30;99.90
8248;DHT22;4164;49.844;8.830;2023-03-14T16:03:49;7.30;99.90
8248;DHT22;4164;49.844;8.830;2023-03-14T16:06:18;7.40;99.90
8248;DHT22;4164;49.844;8.830;2023-03-14T16:08:44;7.40;99.90
8248;DHT22;4164;49.844;8.830;2023-03-14T16:11:12;7.40;99.90
8248;DHT22;4164;49.844;8.830;2023-03-14T16:13:38;7.50;99.90
8248;DHT22;4164;49.844;8.830;2023-03-14T16:16:07;7.60;99.90
8248;DHT22;4164;49.844;8.830;2023-03-14T16:18:35;7.80;99.90
8248;DHT22;4164;49.844;8.830;2023-03-14T16:21:03;7.90;99.90
8248;DHT22;4164;49.844;8.830;2023-03-14T16:23:33;8.00;99.90
8248;DHT22;4164;49.844;8.830;2023-03-14T16:25:59;8.10;99.90
8248;DHT22;4164;49.844;8.830;2023-03-14T16:28:25;8.20;99.90
8248;DHT22;4164;49.844;8.830;2023-03-14T16:30:51;8.20;99.90
8248;DHT22;4164;49.844;8.830;2023-03-14T16:33:17;8.30;99.90
8248;DHT22;4164;49.844;8.830;2023-03-14T16:35:57;8.30;99.90
8248;DHT22;4164;49.844;8.830;2023-03-14T16:38:24;8.30;99.90
8248;DHT22;4164;49.844;8.830;2023-03-14T16:41:02;8.10;99.90
8248;DHT22;4164;49.844;8.830;2023-03-14T16:43:28;8.00;99.90
8248;DHT22;4164;49.844;8.830;2023-03-14T16:45:58;7.80;99.90
8248;DHT22;4164;49.844;8.830;2023-03-14T16:48:25;7.60;99.90
8248;DHT22;4164;49.844;8.830;2023-03-14T16:50:50;7.50;99.90
8248;DHT22;4164;49.844;8.830;2023-03-14T16:53:17;7.30;99.90
8248;DHT22;4164;49.844;8.830;2023-03-14T16:55:43;7.30;99.90
8248;DHT22;4164;49.844;8.830;2023-03-14T16:58:09;7.20;99.90
8248;DHT22;4164;49.844;8.830;2023-03-14T17:00:35;7.20;99.90
8248;DHT22;4164;49.844;8.830;2023-03-14T17:03:00;7.10;99.90
8248;DHT22;4164;49.844;8.830;2023-03-14T17:05:26;7.10;99.90
8248;DHT22;4164;49.844;8.830;2023-03-14T17:07:52;7.00;99.90